Sexy kawaii waifu Games - Total: 48
1
Rank Song Name Score PGAMB Combo Time
326 Odd-22 26,880 45 - 31 - 9 - 49 - 35 9 2017-08-30 00:52:55
359 Make the Fire Burn 7,735 13 - 15 - 2 - 27 - 14 5 2017-08-30 00:52:27
758 Staple on Smile 101,570 118 - 94 - 16 - 64 - 61 31 2017-08-29 15:07:59
2,749 Heterochromia Iridis 18,815 8 - 7 - 8 - 1 - 32 13 2017-08-29 15:07:33
2,363 Winter Wind Etude 669,045 1,017 - 726 - 241 - 423 - 704 42 2017-08-29 15:07:19
446 Music -corrupted mix- 151,085 183 - 143 - 32 - 71 - 132 34 2017-08-29 15:04:03
1,716 Jamais Vu 7,685 7 - 8 - 1 - 10 - 16 5 2017-08-29 15:03:27
3,048 Rave 7 198,110 267 - 163 - 71 - 95 - 201 36 2017-08-29 15:03:11
2,589 Fushigi Usagi Milk Tei 41,435 52 - 36 - 15 - 47 - 66 18 2017-08-29 15:02:18
6,392 do i smile? 136,415 195 - 164 - 59 - 126 - 206 24 2017-08-29 15:01:57
283 DISCHARGE RUSH 435,705 664 - 616 - 139 - 468 - 473 48 2017-08-29 15:00:29
420 where is my balls 3,380 9 - 1 - 1 - 12 - 9 2 2017-08-29 14:58:20
442 where is my balls 1,640 4 - 2 - 0 - 13 - 4 3 2017-08-29 14:58:04
436 OWA Raged In Vegas (Fuck Bees) 81,935 101 - 105 - 30 - 64 - 115 18 2017-08-29 14:57:43
525 OWA Raged at Kurorak for Making OWA Raged at Skeletor 8,130 12 - 14 - 2 - 23 - 15 5 2017-08-29 14:57:02
543 OWA Raged at Kurorak for Making OWA Raged at Skeletor 8,755 13 - 3 - 2 - 13 - 15 5 2017-08-29 14:56:48
581 cold (Kurorak's Bootleg) 14,970 15 - 7 - 1 - 16 - 15 10 2017-08-29 14:56:25
9,686 Reluctantly Accepting Temporary Overexhaustion 379,920 578 - 517 - 123 - 350 - 421 30 2017-08-29 14:12:21
1,439 Undici 189,090 390 - 304 - 70 - 396 - 205 14 2017-08-29 14:10:48
1,523 Call me it. (500 Tortures) 48,575 56 - 46 - 11 - 38 - 85 18 2017-08-29 14:09:23
1,270 Call me it. (500 Tortures) 130,825 192 - 136 - 43 - 118 - 198 26 2017-08-29 14:08:58
1,823 Call me it. (500 Tortures) 30,860 30 - 17 - 5 - 15 - 47 15 2017-08-29 14:08:18
37,269 Death Piano 65,850 64 - 38 - 22 - 47 - 72 35 2017-08-29 14:07:54
33,774 Death Piano 78,180 89 - 77 - 21 - 58 - 106 27 2017-08-29 14:07:36
4,070 The Disappearance of Hatsune Miku -Theatrical Version- 10,125 10 - 3 - 0 - 6 - 17 6 2017-08-29 14:07:05
4,433 The Disappearance of Hatsune Miku -Theatrical Version- 7,715 3 - 1 - 2 - 0 - 16 6 2017-08-29 14:06:58
952 You Universe 33,475 31 - 22 - 7 - 23 - 44 18 2017-08-29 14:06:50
1,015 You Universe 19,920 10 - 13 - 5 - 3 - 25 12 2017-08-29 14:06:37
940 You Universe 29,505 39 - 18 - 5 - 27 - 40 12 2017-08-29 14:06:29
961 You Universe 18,300 27 - 21 - 7 - 29 - 36 7 2017-08-29 14:06:15
951 You Universe 24,635 29 - 24 - 7 - 24 - 43 10 2017-08-29 14:06:02
958 You Universe 21,180 28 - 20 - 4 - 30 - 32 10 2017-08-29 14:05:50
1,591 Call me it. (500 Tortures) 36,130 41 - 44 - 12 - 32 - 63 12 2017-08-29 14:05:32
1,695 Call me it. (500 Tortures) 33,165 33 - 31 - 10 - 16 - 55 12 2017-08-29 14:05:08
2,174 Call me it. (500 Tortures) 14,010 14 - 9 - 3 - 9 - 27 7 2017-08-29 14:04:51
4,534 The Disappearance of Hatsune Miku -Theatrical Version- 1,835 2 - 3 - 0 - 13 - 3 4 2017-08-29 14:04:33
2,084 System Doctor 10,455 10 - 1 - 0 - 10 - 11 8 2017-08-29 14:04:18
1,978 System Doctor 17,315 13 - 6 - 3 - 7 - 24 11 2017-08-29 14:03:43
8,766 Love, The Elephant 19,135 19 - 3 - 0 - 16 - 9 13 2017-08-29 14:03:03
47,230 Baby Don't You Want Me 192,720 115 - 31 - 5 - 1 - 1 121 2017-08-29 14:01:17
20,555 Sea Breeze [Beginner] 65,610 72 - 39 - 3 - 18 - 15 21 2017-08-29 13:59:24
138,238 Terror From Beyond 970 1 - 2 - 0 - 3 - 10 1 2017-08-28 12:54:48
874 Wood Man (Megaman 2) 1,530 1 - 0 - 0 - 0 - 1 1 2017-08-28 12:54:30
208,307 SuperMario 8bit Eighties Remix 37,915 28 - 20 - 9 - 10 - 19 20 2017-08-28 12:53:23
108,464 Dr. Wily Stage 1 8,460 8 - 1 - 1 - 3 - 17 5 2017-08-28 12:51:59
225,463 Legend of Zelda Remix 5,610 5 - 3 - 1 - 16 - 3 7 2017-08-28 12:51:35
852 Wood Man (Megaman 2) 4,615 7 - 3 - 0 - 16 - 5 5 2017-08-28 12:50:27
8,806 Floating Through Time 24,150 27 - 5 - 3 - 22 - 21 15 2017-08-28 12:49:42
1